Terminal Aerodrome Forecast
Issued by NWS Cleveland, OH

Home | Current Version | Previous Version | Text Only | Print | Product List | Glossary On
Versions: 1 2 3 4 5 6 7 8 9 10 11 12 13 14 15 16 17 18 19 20 21 22 23 24 25
000
FTUS41 KCLE 242300
TAFCLE
TAF
KCLE 242330Z 2500/2606 20005KT P6SM BKN035
      TEMPO 2508/2512 BKN020
     FM251300 21010KT P6SM SCT020 BKN080
     FM251600 23012G18KT P6SM -SHRA BKN020 OVC040
     FM252100 26015G22KT P6SM BKN025=

USA.gov is the U.S. government's official web portal to all federal, state and local government web resources and services.